Monday, December 18, 2017, 2:35 PM CST
Back to Local

KCNU, Chanute Johnson Airport

Location: Chanute, KS, United States Lat: 37.667
Local Time: 2:35 PM CST (20:35 GMT) Lon: -95.483
Time Zone: US/Central Elev: 1000 ft

Show me the last for .
Show Decoded

2017-12-18 13:52 METAR KCNU 181952Z AUTO 22008KT 10SM FEW020 12/06 A3007 RMK AO2 SLP182 T01170056
                 =
2017-12-18 12:52 METAR KCNU 181852Z AUTO 21009KT 10SM CLR 11/05 A3010 RMK AO2 SLP192 T01060050 =
2017-12-18 11:52 METAR KCNU 181752Z AUTO 21012KT 8SM FEW012 09/05 A3013 RMK AO2 SLP202 T00890050
                 10089 20044 58004 =
2017-12-18 11:22 METAR KCNU 181722Z AUTO 22011KT 7SM SCT010 08/05 A3013 RMK AO2 T00830050 =
2017-12-18 11:02 METAR KCNU 181702Z AUTO 20013KT 6SM HZ BKN010 07/04 A3014 RMK AO2 T00720044 =
2017-12-18 10:52 METAR KCNU 181652Z AUTO 20014KT 7SM BKN009 07/05 A3014 RMK AO2 SLP208 T00720050
                 =
2017-12-18 10:29 METAR KCNU 181629Z AUTO 21012KT 6SM BR BKN008 07/05 A3014 RMK AO2 T00720050 =
2017-12-18 09:52 METAR KCNU 181552Z AUTO 22011KT 5SM BR FEW006 06/04 A3013 RMK AO2 SLP206
                 T00610044 =
2017-12-18 09:42 METAR KCNU 181542Z AUTO 22011KT 4SM BR SCT006 06/04 A3013 RMK AO2 T00560039 =
2017-12-18 08:52 METAR KCNU 181452Z AUTO 23006KT 4SM BR BKN006 06/04 A3014 RMK AO2 SLP208
                 T00560039 50015 =
2017-12-18 08:23 METAR KCNU 181423Z AUTO 23010KT 4SM BR BKN006 05/04 A3015 RMK AO2 T00500044 =
2017-12-18 08:04 METAR KCNU 181404Z AUTO 22008KT 3SM BR FEW006 04/04 A3014 RMK AO2 T00440039 =
2017-12-18 07:52 METAR KCNU 181352Z AUTO 23008KT 4SM BR CLR 05/04 A3014 RMK AO2 SLP209 T00500039
                 =
2017-12-18 07:40 METAR KCNU 181340Z AUTO 23007KT 4SM BR FEW009 05/04 A3013 RMK AO2 T00500039 =
2017-12-18 07:28 METAR KCNU 181328Z AUTO 23008KT 6SM BR FEW011 05/04 A3013 RMK AO2 T00500039 =
2017-12-18 06:52 METAR KCNU 181252Z AUTO 23007KT 6SM BR OVC010 06/05 A3012 RMK AO2 CIG 008V013
                 SLP200 T00610050 =
2017-12-18 06:40 METAR KCNU 181240Z AUTO 23007KT 6SM BR BKN010 06/05 A3011 RMK AO2 T00610050 =
2017-12-18 06:15 METAR KCNU 181215Z AUTO 23006KT 7SM SCT009 06/04 A3010 RMK AO2 T00560044 =
2017-12-18 05:52 METAR KCNU 181152Z AUTO 23008KT 8SM BKN010 07/05 A3009 RMK AO2 CIG 008V015
                 SLP192 T00670050 10072 20067 51008 =
2017-12-18 05:26 METAR KCNU 181126Z AUTO 23009KT 8SM OVC010 07/06 A3009 RMK AO2 CIG 008V012
                 T00720056 =
2017-12-18 04:52 METAR KCNU 181052Z AUTO 23008KT 7SM OVC007 07/06 A3009 RMK AO2 SLP190 T00720056
                 =
2017-12-18 03:52 METAR KCNU 180952Z AUTO 23010KT 7SM OVC005 07/06 A3008 RMK AO2 SLP188 T00670061
                 =
2017-12-18 03:29 METAR KCNU 180929Z AUTO 22007KT 6SM BR BKN005 OVC030 07/06 A3007 RMK AO2 CIG
                 004V007 T00670056 =
2017-12-18 02:52 METAR KCNU 180852Z AUTO 21009KT 7SM SCT005 OVC030 07/06 A3007 RMK AO2 SLP184
                 T00670061 56002 =
2017-12-18 01:52 METAR KCNU 180752Z AUTO 21007KT 7SM OVC007 07/06 A3007 RMK AO2 CIG 005V009
                 SLP184 T00670061 =
2017-12-18 00:52 METAR KCNU 180652Z AUTO 22006KT 7SM OVC006 07/06 A3007 RMK AO2 SLP185 T00720061
                 =
2017-12-17 23:52 METAR KCNU 180552Z AUTO 21008KT 7SM BKN005 OVC020 07/06 A3008 RMK AO2 SLP186
                 T00720061 10078 20072 400940061 53005 =
2017-12-17 22:52 METAR KCNU 180452Z AUTO 20006KT 5SM BR OVC005 07/06 A3007 RMK AO2 SLP183
                 T00720061 =
2017-12-17 21:57 METAR KCNU 180357Z AUTO 19006KT 5SM BR BKN008 OVC017 07/06 A3006 RMK AO2
                 T00720061 =
2017-12-17 21:52 METAR KCNU 180352Z AUTO 20005KT 6SM BR SCT010 OVC017 07/06 A3006 RMK AO2 SLP181
                 T00720061 =
2017-12-17 20:52 METAR KCNU 180252Z AUTO 19006KT 6SM BR OVC013 07/06 A3006 RMK AO2 SLP181
                 T00720061 50001 =
2017-12-17 20:22 METAR KCNU 180222Z AUTO 19007KT 6SM BR FEW008 OVC014 07/06 A3006 RMK AO2
                 T00720061 =
2017-12-17 20:07 METAR KCNU 180207Z AUTO 19006KT 6SM BR OVC014 07/06 A3007 RMK AO2 T00720061 =
2017-12-17 19:52 METAR KCNU 180152Z AUTO 19006KT 7SM OVC015 07/06 A3006 RMK AO2 SLP182 T00720061
                 =
2017-12-17 19:33 METAR KCNU 180133Z AUTO 18006KT 8SM OVC015 08/06 A3007 RMK AO2 T00780061 =
2017-12-17 18:52 METAR KCNU 180052Z AUTO 20005KT 8SM OVC014 08/07 A3006 RMK AO2 SLP180 T00780067
                 =
2017-12-17 18:50 METAR KCNU 180050Z AUTO 19005KT 8SM OVC014 08/07 A3006 RMK AO2 =
2017-12-17 17:52 METAR KCNU 172352Z AUTO 18007KT 8SM OVC019 08/07 A3005 RMK AO2 SLP176 T00780067
                 10083 20078 53013 =
2017-12-17 16:52 METAR KCNU 172252Z AUTO 18006KT 8SM FEW009 SCT018 OVC023 08/07 A3002 RMK AO2
                 SLP168 T00780067 =
2017-12-17 16:26 METAR KCNU 172226Z AUTO 20007KT 8SM FEW009 OVC016 08/07 A3004 RMK AO2 T00780067
                 =
2017-12-17 15:52 METAR KCNU 172152Z AUTO 19005KT 9SM OVC015 08/07 A3003 RMK AO2 SLP169 T00780067
                 =
2017-12-17 14:52 METAR KCNU 172052Z AUTO 19008KT 10SM SCT008 OVC016 08/07 A3001 RMK AO2 SLP163
                 T00830067 55004 =

Support USWX by starting your Amazon purchase here.